createdAt,value
2018-12-14T00:02:25.332Z,22.00
2018-12-14T00:04:53.963Z,24.67
2018-12-14T00:07:22.713Z,23.80
2018-12-14T00:09:51.638Z,24.75
2018-12-14T00:12:20.219Z,24.35
2018-12-14T00:14:48.770Z,23.70
2018-12-14T00:17:17.489Z,24.90
2018-12-14T00:19:46.137Z,24.92
2018-12-14T00:22:14.637Z,27.25
2018-12-14T00:24:43.524Z,23.25
2018-12-14T00:27:12.690Z,23.95
2018-12-14T00:29:42.210Z,23.50
2018-12-14T00:32:10.899Z,26.30
2018-12-14T00:34:40.635Z,22.07
2018-12-14T00:37:09.462Z,23.27
2018-12-14T00:39:37.991Z,24.00
2018-12-14T00:42:06.650Z,26.25
2018-12-14T00:44:35.367Z,28.62
2018-12-14T00:47:04.638Z,26.60
2018-12-14T00:49:33.182Z,25.90
2018-12-14T00:52:01.879Z,25.02
2018-12-14T00:54:31.170Z,24.25
2018-12-14T00:57:00.202Z,26.68
2018-12-14T00:59:28.741Z,24.57
2018-12-14T01:01:57.953Z,26.12
2018-12-14T01:04:26.421Z,28.35
2018-12-14T01:06:55.122Z,22.80
2018-12-14T01:09:24.075Z,24.05
2018-12-14T01:11:58.096Z,24.92
2018-12-14T01:14:23.494Z,23.12
2018-12-14T01:16:52.017Z,26.42
2018-12-14T01:19:20.573Z,24.72
2018-12-14T01:21:49.123Z,26.15
2018-12-14T01:24:17.659Z,26.95
2018-12-14T01:26:46.321Z,25.45
2018-12-14T01:29:14.923Z,25.05
2018-12-14T01:31:43.667Z,27.37
2018-12-14T01:34:12.273Z,24.37
2018-12-14T01:36:40.863Z,23.85
2018-12-14T01:39:09.441Z,26.27
2018-12-14T01:41:38.005Z,27.60
2018-12-14T01:44:06.838Z,25.20
2018-12-14T01:46:36.065Z,24.70
2018-12-14T01:49:04.834Z,25.40
2018-12-14T01:51:33.511Z,25.70
2018-12-14T01:54:02.087Z,28.20
2018-12-14T01:56:31.222Z,24.67
2018-12-14T01:58:59.821Z,28.38
2018-12-14T02:01:28.876Z,28.47
2018-12-14T02:03:57.569Z,28.55
2018-12-14T02:06:26.886Z,25.70
2018-12-14T02:08:55.502Z,24.55
2018-12-14T02:11:24.016Z,24.80
2018-12-14T02:13:53.077Z,27.80
2018-12-14T02:16:21.745Z,25.60
2018-12-14T02:18:52.455Z,27.35
2018-12-14T02:21:21.258Z,30.05
2018-12-14T02:23:49.876Z,25.10
2018-12-14T02:26:18.602Z,29.55
2018-12-14T02:28:47.124Z,25.60
2018-12-14T02:31:15.863Z,28.35
2018-12-14T02:33:44.481Z,29.67
2018-12-14T02:36:13.760Z,24.25
2018-12-14T02:38:43.074Z,25.80
2018-12-14T02:41:12.288Z,26.25
2018-12-14T02:43:41.513Z,25.23
2018-12-14T02:46:10.373Z,27.65
2018-12-14T02:48:38.978Z,28.70
2018-12-14T02:51:07.680Z,31.65
2018-12-14T02:53:36.464Z,25.65
2018-12-14T02:56:05.160Z,24.43
2018-12-14T02:58:33.675Z,26.17
2018-12-14T03:01:02.301Z,26.57
2018-12-14T03:03:31.167Z,26.95
2018-12-14T03:05:59.729Z,28.62
2018-12-14T03:08:28.863Z,28.00
2018-12-14T03:10:58.086Z,24.15
2018-12-14T03:13:27.130Z,25.45
2018-12-14T03:15:56.786Z,26.80
2018-12-14T03:18:25.515Z,26.37
2018-12-14T03:20:54.199Z,24.77
2018-12-14T03:23:22.758Z,24.92
2018-12-14T03:25:51.798Z,24.92
2018-12-14T03:28:20.481Z,25.82
2018-12-14T03:30:49.021Z,25.60
2018-12-14T03:33:18.341Z,24.23
2018-12-14T03:35:47.212Z,23.47
2018-12-14T03:38:16.179Z,23.60
2018-12-14T03:40:45.694Z,25.25
2018-12-14T03:43:14.834Z,25.25
2018-12-14T03:45:43.461Z,23.65
2018-12-14T03:48:12.087Z,23.77
2018-12-14T03:50:41.660Z,26.20
2018-12-14T03:53:10.581Z,25.90
2018-12-14T03:55:39.157Z,26.82
2018-12-14T03:58:09.199Z,26.15
2018-12-14T04:00:38.119Z,22.58
2018-12-14T04:03:06.955Z,23.35
2018-12-14T04:05:35.814Z,24.35
2018-12-14T04:08:04.579Z,22.87
2018-12-14T04:10:33.432Z,24.57
2018-12-14T04:13:02.258Z,23.62
2018-12-14T04:15:31.477Z,23.85
2018-12-14T04:18:00.255Z,22.02
2018-12-14T04:20:29.352Z,24.67
2018-12-14T04:22:57.839Z,26.02
2018-12-14T04:25:26.687Z,22.95
2018-12-14T04:27:55.387Z,24.05
2018-12-14T04:30:23.884Z,23.73
2018-12-14T04:32:52.384Z,21.20
2018-12-14T04:35:21.909Z,23.52
2018-12-14T04:37:50.481Z,22.58
2018-12-14T04:40:19.166Z,21.15
2018-12-14T04:42:48.914Z,20.08
2018-12-14T04:45:17.801Z,22.52
2018-12-14T04:47:46.869Z,20.23
2018-12-14T04:50:15.449Z,21.00
2018-12-14T04:52:44.183Z,22.77
2018-12-14T04:55:13.197Z,21.90
2018-12-14T04:57:41.809Z,19.55
2018-12-14T05:00:10.796Z,22.02
2018-12-14T05:02:40.065Z,21.35
2018-12-14T05:05:08.794Z,22.02
2018-12-14T05:07:37.503Z,22.25
2018-12-14T05:10:06.955Z,23.42
2018-12-14T05:12:36.511Z,22.90
2018-12-14T05:15:05.642Z,25.20
2018-12-14T05:17:34.250Z,21.25
2018-12-14T05:20:02.893Z,21.65
2018-12-14T05:22:31.467Z,22.07
2018-12-14T05:25:00.605Z,22.05
2018-12-14T05:27:29.497Z,22.02
2018-12-14T05:29:58.388Z,23.92
2018-12-14T05:32:27.162Z,21.33
2018-12-14T05:34:55.804Z,21.25
2018-12-14T05:37:24.488Z,20.80
2018-12-14T05:39:53.780Z,21.25
2018-12-14T05:42:23.182Z,21.02
2018-12-14T05:44:52.131Z,21.70
2018-12-14T05:47:20.697Z,20.43
2018-12-14T05:49:49.281Z,23.70
2018-12-14T05:52:18.260Z,19.25
2018-12-14T05:54:48.080Z,21.65
2018-12-14T05:57:16.664Z,24.63
2018-12-14T05:59:45.507Z,26.40
2018-12-14T06:02:14.044Z,22.75
2018-12-14T06:04:42.572Z,21.93
2018-12-14T06:07:15.229Z,21.87
2018-12-14T06:09:43.919Z,23.18
2018-12-14T06:12:13.126Z,23.75
2018-12-14T06:14:45.629Z,21.60
2018-12-14T06:17:14.314Z,20.48
2018-12-14T06:19:43.022Z,22.82
2018-12-14T06:22:12.186Z,23.32
2018-12-14T06:24:41.013Z,20.17
2018-12-14T06:27:09.888Z,23.52
2018-12-14T06:29:40.087Z,22.87
2018-12-14T06:32:08.624Z,23.70
2018-12-14T06:34:37.080Z,23.50
2018-12-14T06:37:06.947Z,23.65
2018-12-14T06:39:35.826Z,25.25
2018-12-14T06:42:05.452Z,27.05
2018-12-14T06:44:34.003Z,27.50
2018-12-14T06:47:02.761Z,26.85
2018-12-14T06:49:31.432Z,27.85
2018-12-14T06:52:00.100Z,23.47
2018-12-14T06:54:28.715Z,23.87
2018-12-14T06:56:57.771Z,25.10
2018-12-14T06:59:26.514Z,23.27
2018-12-14T07:01:55.166Z,26.93
2018-12-14T07:04:23.747Z,21.77
2018-12-14T07:06:52.387Z,21.57
2018-12-14T07:09:22.249Z,21.62
2018-12-14T07:11:51.057Z,23.67
2018-12-14T07:14:20.231Z,26.97
2018-12-14T07:16:49.213Z,21.05
2018-12-14T07:19:18.549Z,27.93
2018-12-14T07:21:47.249Z,24.05
2018-12-14T07:24:15.872Z,24.60
2018-12-14T07:26:44.589Z,23.75
2018-12-14T07:29:13.658Z,24.67
2018-12-14T07:31:42.232Z,26.82
2018-12-14T07:34:10.769Z,22.85
2018-12-14T07:36:39.566Z,23.12
2018-12-14T07:39:08.151Z,27.42
2018-12-14T07:41:37.641Z,26.12
2018-12-14T07:44:06.231Z,21.80
2018-12-14T07:46:34.975Z,25.65
2018-12-14T07:49:03.656Z,22.93
2018-12-14T07:51:32.402Z,28.62
2018-12-14T07:54:00.993Z,24.43
2018-12-14T07:56:30.326Z,22.50
2018-12-14T07:58:59.429Z,21.35
2018-12-14T08:01:28.749Z,30.17
2018-12-14T08:03:57.469Z,31.20
2018-12-14T08:06:26.194Z,28.47
2018-12-14T08:08:54.864Z,25.97
2018-12-14T08:11:23.594Z,21.45
2018-12-14T08:13:52.875Z,21.95
2018-12-14T08:16:22.022Z,23.77
2018-12-14T08:18:50.606Z,23.57
2018-12-14T08:21:19.068Z,21.97
2018-12-14T08:23:47.732Z,21.25
2018-12-14T08:26:16.347Z,22.07
2018-12-14T08:28:44.997Z,23.95
2018-12-14T08:31:13.585Z,22.13
2018-12-14T08:33:42.370Z,20.27
2018-12-14T08:36:11.153Z,27.58
2018-12-14T08:38:43.438Z,30.40
2018-12-14T08:41:11.921Z,26.12
2018-12-14T08:43:41.617Z,24.37
2018-12-14T08:46:10.573Z,25.17
2018-12-14T08:48:39.162Z,20.75
2018-12-14T08:51:07.668Z,28.15
2018-12-14T08:53:36.751Z,25.37
2018-12-14T08:56:05.625Z,24.05
2018-12-14T08:58:34.250Z,22.20
2018-12-14T09:01:02.821Z,21.23
2018-12-14T09:03:32.008Z,20.88
2018-12-14T09:06:00.766Z,22.35
2018-12-14T09:08:29.401Z,25.70
2018-12-14T09:10:58.129Z,23.22
2018-12-14T09:13:27.472Z,22.65
2018-12-14T09:15:56.244Z,21.55
2018-12-14T09:18:24.930Z,26.68
2018-12-14T09:20:53.569Z,28.15
2018-12-14T09:23:22.399Z,21.87
2018-12-14T09:25:51.146Z,25.40
2018-12-14T09:28:19.841Z,25.50
2018-12-14T09:30:48.664Z,23.15
2018-12-14T09:33:17.557Z,21.60
2018-12-14T09:35:46.370Z,21.07
2018-12-14T09:38:14.955Z,23.15
2018-12-14T09:40:43.504Z,25.60
2018-12-14T09:43:12.039Z,23.22
2018-12-14T09:45:41.246Z,30.65
2018-12-14T09:48:09.882Z,26.10
2018-12-14T09:50:38.969Z,22.22
2018-12-14T09:53:07.694Z,20.32
2018-12-14T09:55:36.250Z,22.20
2018-12-14T09:58:05.904Z,28.15
2018-12-14T10:00:34.718Z,32.63
2018-12-14T10:03:03.229Z,30.85
2018-12-14T10:05:32.293Z,29.30
2018-12-14T10:08:01.232Z,27.13
2018-12-14T10:10:30.592Z,26.23
2018-12-14T10:12:59.495Z,25.62
2018-12-14T10:15:28.507Z,26.97
2018-12-14T10:17:57.056Z,24.70
2018-12-14T10:20:26.589Z,28.42
2018-12-14T10:22:56.010Z,26.48
2018-12-14T10:25:24.713Z,24.27
2018-12-14T10:27:53.351Z,32.70
2018-12-14T10:30:22.198Z,26.90
2018-12-14T10:32:50.987Z,29.37
2018-12-14T10:35:19.550Z,23.02
2018-12-14T10:37:48.033Z,22.45
2018-12-14T10:40:16.830Z,27.70
2018-12-14T10:42:45.624Z,26.75
2018-12-14T10:45:14.915Z,24.30
2018-12-14T10:47:44.259Z,23.47
2018-12-14T10:50:13.232Z,27.35
2018-12-14T10:52:41.822Z,25.88
2018-12-14T10:55:10.735Z,26.30
2018-12-14T10:57:39.705Z,26.27
2018-12-14T11:00:17.066Z,27.70
2018-12-14T11:02:45.877Z,26.23
2018-12-14T11:05:14.476Z,22.10
2018-12-14T11:07:43.090Z,21.42
2018-12-14T11:10:11.845Z,19.57
2018-12-14T11:12:40.471Z,21.80
2018-12-14T11:15:09.573Z,23.05
2018-12-14T11:17:38.571Z,24.77
2018-12-14T11:20:09.934Z,23.87
2018-12-14T11:22:39.023Z,25.20
2018-12-14T11:25:08.368Z,34.45
2018-12-14T11:27:37.243Z,29.20
2018-12-14T11:30:07.870Z,29.23
2018-12-14T11:32:36.714Z,23.92
2018-12-14T11:35:05.950Z,22.48
2018-12-14T11:37:35.372Z,25.15
2018-12-14T11:40:04.551Z,23.45
2018-12-14T11:42:33.903Z,22.30
2018-12-14T11:45:02.404Z,22.52
2018-12-14T11:47:31.365Z,22.32
2018-12-14T11:50:00.001Z,22.60
2018-12-14T11:52:29.793Z,25.12
2018-12-14T11:54:58.431Z,22.67
2018-12-14T11:57:27.310Z,20.85
2018-12-14T11:59:56.815Z,21.75
2018-12-14T12:02:25.476Z,23.27
2018-12-14T12:04:54.148Z,23.12
2018-12-14T12:07:22.901Z,21.57
2018-12-14T12:09:51.590Z,22.25
2018-12-14T12:12:20.675Z,22.45
2018-12-14T12:14:50.000Z,25.35
2018-12-14T12:17:18.977Z,22.58
2018-12-14T12:19:48.542Z,21.00
2018-12-14T12:22:17.075Z,20.55
2018-12-14T12:24:45.779Z,23.95
2018-12-14T12:27:14.865Z,22.17
2018-12-14T12:29:44.056Z,29.95
2018-12-14T12:32:12.914Z,28.60
2018-12-14T12:34:41.662Z,23.65
2018-12-14T12:37:10.203Z,23.67
2018-12-14T12:39:39.032Z,23.15
2018-12-14T12:42:07.717Z,22.37
2018-12-14T12:44:36.455Z,26.10
2018-12-14T12:47:05.919Z,23.70
2018-12-14T12:49:34.634Z,26.35
2018-12-14T12:52:03.489Z,25.80
2018-12-14T12:54:32.101Z,23.73
2018-12-14T12:57:01.667Z,22.45
2018-12-14T12:59:31.025Z,24.30
2018-12-14T13:02:00.732Z,25.40
2018-12-14T13:04:36.282Z,24.15
2018-12-14T13:07:05.149Z,28.27
2018-12-14T13:09:33.900Z,24.18
2018-12-14T13:12:02.574Z,23.07
2018-12-14T13:14:31.399Z,26.75
2018-12-14T13:17:00.594Z,22.52
2018-12-14T13:19:29.578Z,24.05
2018-12-14T13:21:58.186Z,22.70
2018-12-14T13:24:28.033Z,26.07
2018-12-14T13:26:56.738Z,24.25
2018-12-14T13:29:25.547Z,24.35
2018-12-14T13:31:54.356Z,30.43
2018-12-14T13:34:23.029Z,30.20
2018-12-14T13:36:52.381Z,22.00
2018-12-14T13:39:21.060Z,21.27
2018-12-14T13:41:50.087Z,21.90
2018-12-14T13:44:19.480Z,24.05
2018-12-14T13:46:48.313Z,23.83
2018-12-14T13:49:17.325Z,22.98
2018-12-14T13:51:46.158Z,24.32
2018-12-14T13:54:15.352Z,22.17
2018-12-14T13:56:44.107Z,20.80
2018-12-14T13:59:13.199Z,20.60
2018-12-14T14:01:41.913Z,22.07
2018-12-14T14:04:10.615Z,24.55
2018-12-14T14:06:39.734Z,21.40
2018-12-14T14:09:09.195Z,22.77
2018-12-14T14:11:38.454Z,21.75
2018-12-14T14:14:07.295Z,24.98
2018-12-14T14:16:35.811Z,21.55
2018-12-14T14:19:04.416Z,22.52
2018-12-14T14:21:33.002Z,22.17
2018-12-14T14:24:01.600Z,20.75
2018-12-14T14:26:30.409Z,21.90
2018-12-14T14:28:59.088Z,22.13
2018-12-14T14:34:17.536Z,22.95
2018-12-14T14:36:46.619Z,24.47
2018-12-14T14:39:16.043Z,22.02
2018-12-14T14:41:44.765Z,22.27
2018-12-14T14:44:13.885Z,24.20
2018-12-14T14:46:42.914Z,24.90
2018-12-14T14:49:11.785Z,29.42
2018-12-14T14:51:40.892Z,25.05
2018-12-14T14:54:09.770Z,28.17
2018-12-14T14:56:38.875Z,23.75
2018-12-14T14:59:08.344Z,24.15
2018-12-14T15:01:37.469Z,23.92
2018-12-14T15:04:06.465Z,20.50
2018-12-14T15:06:35.913Z,23.12
2018-12-14T15:09:07.116Z,23.50
2018-12-14T15:11:36.013Z,23.20
2018-12-14T15:14:04.857Z,25.32
2018-12-14T15:16:33.825Z,21.25
2018-12-14T15:19:02.744Z,24.40
2018-12-14T15:21:31.636Z,21.77
2018-12-14T15:24:01.672Z,25.77
2018-12-14T15:26:30.895Z,27.52
2018-12-14T15:29:00.254Z,28.47
2018-12-14T15:31:29.049Z,24.92
2018-12-14T15:33:58.313Z,23.98
2018-12-14T15:36:27.323Z,27.07
2018-12-14T15:38:55.997Z,22.80
2018-12-14T15:41:24.710Z,23.42
2018-12-14T15:43:53.556Z,22.22
2018-12-14T15:46:22.358Z,21.10
2018-12-14T15:48:50.955Z,19.87
2018-12-14T15:51:19.656Z,21.73
2018-12-14T15:53:48.351Z,22.42
2018-12-14T15:56:17.169Z,23.65
2018-12-14T15:58:45.816Z,24.37
2018-12-14T16:01:14.581Z,24.87
2018-12-14T16:03:43.403Z,24.75
2018-12-14T16:06:12.044Z,22.25
2018-12-14T16:08:40.925Z,23.80
2018-12-14T16:11:09.890Z,22.62
2018-12-14T16:13:39.259Z,22.50
2018-12-14T16:16:08.124Z,22.65
2018-12-14T16:18:37.149Z,19.60
2018-12-14T16:21:06.299Z,21.30
2018-12-14T16:23:36.196Z,18.55
2018-12-14T16:26:05.432Z,22.15
2018-12-14T16:28:34.538Z,22.30
2018-12-14T16:31:04.116Z,21.42
2018-12-14T16:33:33.123Z,23.70
2018-12-14T16:36:02.135Z,21.57
2018-12-14T16:38:31.342Z,22.20
2018-12-14T16:41:01.480Z,20.82
2018-12-14T16:43:30.908Z,23.18
2018-12-14T16:46:00.331Z,20.75
2018-12-14T16:48:30.383Z,20.85
2018-12-14T16:50:59.955Z,23.12
2018-12-14T16:53:31.572Z,24.32
2018-12-14T16:56:02.014Z,24.85
2018-12-14T16:58:31.235Z,29.77
2018-12-14T17:01:00.865Z,27.17
2018-12-14T17:03:30.322Z,25.75
2018-12-14T17:05:59.506Z,22.13
2018-12-14T17:08:28.789Z,23.38
2018-12-14T17:10:58.317Z,27.98
2018-12-14T17:13:27.615Z,24.80
2018-12-14T17:15:57.080Z,22.67
2018-12-14T17:18:25.696Z,22.90
2018-12-14T17:20:54.802Z,23.57
2018-12-14T17:23:24.232Z,29.40
2018-12-14T17:25:53.138Z,28.60
2018-12-14T17:28:22.010Z,25.70
2018-12-14T17:30:51.316Z,26.97
2018-12-14T17:33:20.029Z,27.65
2018-12-14T17:35:48.927Z,27.50
2018-12-14T17:38:17.579Z,26.42
2018-12-14T17:40:46.511Z,21.12
2018-12-14T17:43:15.182Z,21.65
2018-12-14T17:45:43.885Z,21.85
2018-12-14T17:48:12.529Z,22.50
2018-12-14T17:50:41.368Z,21.25
2018-12-14T17:53:10.489Z,24.02
2018-12-14T17:55:39.113Z,25.72
2018-12-14T17:58:07.726Z,32.45
2018-12-14T18:00:36.892Z,72.27
2018-12-14T18:03:05.813Z,53.05
2018-12-14T18:05:34.404Z,39.53
2018-12-14T18:08:03.284Z,32.63
2018-12-14T18:10:32.198Z,25.48
2018-12-14T18:13:00.842Z,22.62
2018-12-14T18:15:30.287Z,24.50
2018-12-14T18:17:58.992Z,23.18
2018-12-14T18:20:27.758Z,21.93
2018-12-14T18:22:56.623Z,25.08
2018-12-14T18:25:25.701Z,24.75
2018-12-14T18:27:54.453Z,25.32
2018-12-14T18:30:23.417Z,24.15
2018-12-14T18:32:52.159Z,26.87
2018-12-14T18:35:20.960Z,24.52
2018-12-14T18:37:49.813Z,25.02
2018-12-14T18:40:19.020Z,23.45
2018-12-14T18:42:49.231Z,24.32
2018-12-14T18:45:20.037Z,28.35
2018-12-14T18:47:50.346Z,48.65
2018-12-14T18:50:25.873Z,38.67
2018-12-14T18:52:56.239Z,27.52
2018-12-14T18:55:26.190Z,25.08
2018-12-14T18:58:01.868Z,22.73
2018-12-14T19:00:31.650Z,26.23
2018-12-14T19:03:01.355Z,30.43
2018-12-14T19:05:31.004Z,27.07
2018-12-14T19:08:00.537Z,28.75
2018-12-14T19:10:30.387Z,31.93
2018-12-14T19:13:03.726Z,33.55
2018-12-14T19:15:32.813Z,30.32
2018-12-14T19:18:02.120Z,28.10
2018-12-14T19:20:32.342Z,26.20
2018-12-14T19:23:01.563Z,27.52
2018-12-14T19:25:31.255Z,25.40
2018-12-14T19:28:00.546Z,26.00
2018-12-14T19:30:29.828Z,25.40
2018-12-14T19:32:59.580Z,27.62
2018-12-14T19:35:28.544Z,29.45
2018-12-14T19:37:58.782Z,27.52
2018-12-14T19:40:27.873Z,27.10
2018-12-14T19:42:57.126Z,27.27
2018-12-14T19:45:25.962Z,29.72
2018-12-14T19:47:54.761Z,25.77
2018-12-14T19:50:23.549Z,30.08
2018-12-14T19:52:53.123Z,25.82
2018-12-14T19:55:22.657Z,27.02
2018-12-14T19:57:52.008Z,28.73
2018-12-14T20:00:21.302Z,27.42
2018-12-14T20:02:50.473Z,25.05
2018-12-14T20:05:19.490Z,26.35
2018-12-14T20:07:48.282Z,25.50
2018-12-14T20:10:17.571Z,25.92
2018-12-14T20:12:46.595Z,29.10
2018-12-14T20:15:15.659Z,24.90
2018-12-14T20:17:44.472Z,24.02
2018-12-14T20:20:13.576Z,35.60
2018-12-14T20:22:42.530Z,30.17
2018-12-14T20:25:11.638Z,28.02
2018-12-14T20:27:41.273Z,28.35
2018-12-14T20:30:10.529Z,25.88
2018-12-14T20:32:39.352Z,27.32
2018-12-14T20:35:08.764Z,46.33
2018-12-14T20:37:37.507Z,52.13
2018-12-14T20:40:07.006Z,34.43
2018-12-14T20:42:35.852Z,28.25
2018-12-14T20:45:05.099Z,31.35
2018-12-14T20:47:34.000Z,42.62
2018-12-14T20:50:03.024Z,27.15
2018-12-14T20:52:31.918Z,32.35
2018-12-14T20:55:00.669Z,49.70
2018-12-14T20:57:30.104Z,37.83
2018-12-14T20:59:58.902Z,38.35
2018-12-14T21:02:28.068Z,42.43
2018-12-14T21:04:57.543Z,47.53
2018-12-14T21:07:27.400Z,39.15
2018-12-14T21:09:56.936Z,29.55
2018-12-14T21:12:25.932Z,36.05
2018-12-14T21:14:55.499Z,34.05
2018-12-14T21:17:24.320Z,33.02
2018-12-14T21:19:52.981Z,28.40
2018-12-14T21:22:21.684Z,35.25
2018-12-14T21:24:50.581Z,25.77
2018-12-14T21:27:19.626Z,27.75
2018-12-14T21:29:48.802Z,26.85
2018-12-14T21:32:17.674Z,26.73
2018-12-14T21:34:46.418Z,26.02
2018-12-14T21:37:15.338Z,25.92
2018-12-14T21:39:45.162Z,30.05
2018-12-14T21:42:15.303Z,26.70
2018-12-14T21:44:44.153Z,25.00
2018-12-14T21:47:12.780Z,24.60
2018-12-14T21:49:42.146Z,24.65
2018-12-14T21:52:11.033Z,27.42
2018-12-14T21:54:39.661Z,25.00
2018-12-14T21:57:08.420Z,32.73
2018-12-14T21:59:37.102Z,39.05
2018-12-14T22:02:07.123Z,26.77
2018-12-14T22:04:35.806Z,28.05
2018-12-14T22:07:04.656Z,31.70
2018-12-14T22:09:34.556Z,40.08
2018-12-14T22:12:03.301Z,35.10
2018-12-14T22:14:32.182Z,33.00
2018-12-14T22:17:00.811Z,38.55
2018-12-14T22:19:29.454Z,33.00
2018-12-14T22:21:58.059Z,36.35
2018-12-14T22:24:26.818Z,26.05
2018-12-14T22:26:55.435Z,34.27
2018-12-14T22:29:24.146Z,30.72
2018-12-14T22:31:53.491Z,28.92
2018-12-14T22:34:22.164Z,28.50
2018-12-14T22:36:50.764Z,27.40
2018-12-14T22:39:20.133Z,26.48
2018-12-14T22:41:48.918Z,28.15
2018-12-14T22:44:21.544Z,26.02
2018-12-14T22:46:49.871Z,28.92
2018-12-14T22:49:18.747Z,28.50
2018-12-14T22:51:48.310Z,31.62
2018-12-14T22:54:17.070Z,26.02
2018-12-14T22:56:45.743Z,23.98
2018-12-14T22:59:14.343Z,26.05
2018-12-14T23:01:43.311Z,24.15
2018-12-14T23:04:12.436Z,26.87
2018-12-14T23:06:41.108Z,30.48
2018-12-14T23:09:09.832Z,27.73
2018-12-14T23:11:39.330Z,26.73
2018-12-14T23:14:07.880Z,27.95
2018-12-14T23:16:36.623Z,27.37
2018-12-14T23:19:05.152Z,25.65
2018-12-14T23:21:34.032Z,31.97
2018-12-14T23:24:02.600Z,24.72
2018-12-14T23:26:31.162Z,27.20
2018-12-14T23:28:59.711Z,40.83
2018-12-14T23:31:28.225Z,33.98
2018-12-14T23:33:56.837Z,38.25
2018-12-14T23:36:25.424Z,29.72
2018-12-14T23:38:54.003Z,24.95
2018-12-14T23:41:22.929Z,27.35
2018-12-14T23:43:51.563Z,25.45
2018-12-14T23:46:20.300Z,23.50
2018-12-14T23:48:49.541Z,27.07
2018-12-14T23:51:18.185Z,24.50
2018-12-14T23:53:46.841Z,24.90
2018-12-14T23:56:15.824Z,27.15
2018-12-14T23:58:45.726Z,27.62
